Time;durP1;ratioP1;P1;durP2;ratioP2;P2;SDS_P1;SDS_P2;PMS_P1;PMS_P2;Temp;Humidity;BMP_temperature;BMP_pressure;BME280_temperature;BME280_humidity;BME280_pressure;Samples;Min_cycle;Max_cycle;Signal;HPM_P1;HPM_P2
2023/08/05 03:00:38;;;;;;;0.30;0.30;;;22.70;56.00;;;;;;6009408;23;45910;31
2023/08/05 03:03:05;;;;;;;0.73;0.50;;;22.70;56.00;;;;;;4845737;28;48524;-86
2023/08/05 03:05:31;;;;;;;0.60;0.40;;;22.70;56.10;;;;;;4876804;29;45157;-83
2023/08/05 03:07:56;;;;;;;1.30;0.43;;;22.70;56.00;;;;;;4901205;28;45309;-81
2023/08/05 03:10:22;;;;;;;0.63;0.43;;;22.70;56.00;;;;;;4895443;28;45044;-82
2023/08/05 03:12:47;;;;;;;0.40;0.40;;;22.70;56.00;;;;;;4863262;29;47118;-86
2023/08/05 03:15:15;;;;;;;0.30;0.30;;;22.70;56.00;;;;;;4850899;29;45648;-87
2023/08/05 03:17:41;;;;;;;0.50;0.40;;;22.70;56.00;;;;;;4885485;29;45351;-82
2023/08/05 03:20:21;;;;;;;0.80;0.50;;;22.70;56.00;;;;;;4878442;29;45000;-85
2023/08/05 03:22:47;;;;;;;0.38;0.32;;;22.70;56.00;;;;;;4879207;29;46040;-83
2023/08/05 03:25:13;;;;;;;0.65;0.40;;;22.70;56.10;;;;;;4862087;29;45185;-87
2023/08/05 03:27:38;;;;;;;0.70;0.40;;;22.70;56.00;;;;;;4881892;29;45149;-84
2023/08/05 03:30:05;;;;;;;1.02;0.57;;;22.70;56.00;;;;;;4846164;29;44993;-87
2023/08/05 03:32:30;;;;;;;0.75;0.47;;;22.70;56.00;;;;;;4858788;29;45664;-85
2023/08/05 03:34:56;;;;;;;1.20;0.60;;;22.70;56.00;;;;;;4879592;29;45436;-83
2023/08/05 03:37:21;;;;;;;0.63;0.50;;;22.70;56.00;;;;;;4860583;29;45107;-81
2023/08/05 03:39:48;;;;;;;1.60;0.40;;;22.70;56.10;;;;;;4868658;29;45175;-82
2023/08/05 03:42:13;;;;;;;0.60;0.50;;;22.70;56.70;;;;;;4864014;28;45963;-84
2023/08/05 03:44:42;;;;;;;1.10;0.60;;;22.70;56.00;;;;;;4883934;29;45158;-87
2023/08/05 03:47:08;;;;;;;2.47;0.40;;;22.70;56.00;;;;;;4866889;28;45431;-87
2023/08/05 03:49:34;;;;;;;0.95;0.40;;;22.70;56.00;;;;;;4868882;29;45227;-83
2023/08/05 03:51:59;;;;;;;0.93;0.52;;;22.70;56.00;;;;;;4877659;29;45390;-84
2023/08/05 03:54:25;;;;;;;0.55;0.40;;;22.70;56.00;;;;;;4865642;29;45387;-84
2023/08/05 03:56:51;;;;;;;0.75;0.55;;;22.70;56.00;;;;;;4860685;29;44788;-84
2023/08/05 03:59:17;;;;;;;2.58;0.50;;;22.70;56.00;;;;;;4881012;29;45313;-84
2023/08/05 04:01:43;;;;;;;0.75;0.40;;;22.60;56.00;;;;;;4857151;29;46075;-83
2023/08/05 04:04:08;;;;;;;0.85;0.50;;;22.60;56.00;;;;;;4878858;29;45179;-85
2023/08/05 04:06:34;;;;;;;0.75;0.50;;;22.60;55.90;;;;;;4867501;29;46123;-85
2023/08/05 04:09:00;;;;;;;0.40;0.35;;;22.60;55.90;;;;;;4862626;29;44930;-83
2023/08/05 04:11:26;;;;;;;0.50;0.40;;;22.60;56.00;;;;;;4863557;29;46891;-84
2023/08/05 04:13:52;;;;;;;1.00;0.43;;;22.60;56.00;;;;;;4865818;29;44851;-86
2023/08/05 04:16:18;;;;;;;0.52;0.50;;;22.70;56.00;;;;;;4877647;29;45605;-84
2023/08/05 04:18:46;;;;;;;1.55;0.60;;;22.60;56.00;;;;;;4878952;29;45136;-84
2023/08/05 04:21:11;;;;;;;0.52;0.50;;;22.60;56.00;;;;;;4864096;29;46409;-84
2023/08/05 04:23:38;;;;;;;0.50;0.50;;;22.70;56.00;;;;;;4860513;29;45266;-84
2023/08/05 04:26:05;;;;;;;0.45;0.45;;;22.60;56.00;;;;;;4894261;28;45256;-85
2023/08/05 04:28:30;;;;;;;0.50;0.30;;;22.60;56.00;;;;;;4881232;29;45382;-84
2023/08/05 04:30:57;;;;;;;1.10;0.77;;;22.60;56.00;;;;;;4858595;29;47164;-82
2023/08/05 04:33:25;;;;;;;0.50;0.50;;;22.70;56.00;;;;;;4868881;29;45400;-85
2023/08/05 04:35:51;;;;;;;0.85;0.50;;;22.60;56.00;;;;;;4890036;28;45074;-87
2023/08/05 04:38:16;;;;;;;0.50;0.50;;;22.60;56.00;;;;;;4864623;29;45025;-83
2023/08/05 04:40:42;;;;;;;0.60;0.50;;;22.70;56.10;;;;;;4861808;29;46894;-89
2023/08/05 04:43:08;;;;;;;0.40;0.40;;;22.60;56.00;;;;;;4867318;29;44686;-85
2023/08/05 04:45:34;;;;;;;0.63;0.50;;;22.60;56.00;;;;;;4857850;29;44913;-82
2023/08/05 04:48:00;;;;;;;0.47;0.47;;;22.60;56.00;;;;;;4862348;29;45519;-84
2023/08/05 04:50:26;;;;;;;0.82;0.50;;;22.60;56.00;;;;;;4864723;29;47016;-83
2023/08/05 04:52:51;;;;;;;0.95;0.52;;;22.60;56.00;;;;;;4881024;29;45339;-84
2023/08/05 04:55:17;;;;;;;0.70;0.40;;;22.60;56.00;;;;;;4848860;29;45463;-87
2023/08/05 04:57:43;;;;;;;0.35;0.35;;;22.60;56.00;;;;;;4861550;29;45345;-84
2023/08/05 05:00:10;;;;;;;0.50;0.50;;;22.60;56.00;;;;;;4862443;29;46170;-86
2023/08/05 05:02:38;;;;;;;2.13;0.38;;;22.60;56.00;;;;;;4877847;29;45476;-84
2023/08/05 05:05:07;;;;;;;0.35;0.35;;;22.60;56.00;;;;;;4877777;29;45478;-87
2023/08/05 05:07:32;;;;;;;1.40;0.43;;;22.60;56.00;;;;;;4864622;29;45351;-83
2023/08/05 05:09:59;;;;;;;0.70;0.70;;;22.60;56.00;;;;;;4863526;29;46972;-83
2023/08/05 05:12:24;;;;;;;1.00;0.40;;;22.60;56.00;;;;;;4860953;29;45296;-88
2023/08/05 05:14:50;;;;;;;0.40;0.40;;;22.60;56.00;;;;;;4885643;29;44917;-82
2023/08/05 05:17:16;;;;;;;0.52;0.52;;;22.60;56.00;;;;;;4860371;29;45397;-84
2023/08/05 05:19:42;;;;;;;0.63;0.50;;;22.60;56.00;;;;;;4880824;29;46950;-84
2023/08/05 05:22:08;;;;;;;0.60;0.60;;;22.60;56.00;;;;;;4876720;28;45043;-83
2023/08/05 05:24:34;;;;;;;0.80;0.30;;;22.60;56.00;;;;;;4883642;29;45283;-83
2023/08/05 05:26:59;;;;;;;0.32;0.32;;;22.60;56.00;;;;;;4866378;29;45231;-84
2023/08/05 05:29:25;;;;;;;0.60;0.60;;;22.60;56.00;;;;;;4866224;29;47313;-84
2023/08/05 05:31:50;;;;;;;0.57;0.57;;;22.60;56.00;;;;;;4847127;29;45979;-84
2023/08/05 05:34:16;;;;;;;2.20;0.40;;;22.60;56.00;;;;;;4850872;29;45485;-84
2023/08/05 05:36:42;;;;;;;0.50;0.50;;;22.60;56.00;;;;;;4861666;29;45209;-85
2023/08/05 05:39:07;;;;;;;0.70;0.43;;;22.60;56.00;;;;;;4881569;29;47432;-83
2023/08/05 05:41:33;;;;;;;0.55;0.52;;;22.60;56.00;;;;;;4875936;29;45526;-83
2023/08/05 05:43:59;;;;;;;0.57;0.50;;;22.60;56.00;;;;;;4866240;29;45360;-84
2023/08/05 05:46:26;;;;;;;0.43;0.40;;;22.60;56.00;;;;;;4859142;29;45477;-84
2023/08/05 05:48:51;;;;;;;0.70;0.60;;;22.60;56.00;;;;;;4845836;29;47385;-83
2023/08/05 05:51:17;;;;;;;0.70;0.52;;;22.60;56.10;;;;;;4844391;29;45128;-85
2023/08/05 05:53:42;;;;;;;0.60;0.52;;;22.60;56.00;;;;;;4864115;29;45029;-83
2023/08/05 05:56:08;;;;;;;1.85;0.50;;;22.60;56.00;;;;;;4860002;29;45991;-84
2023/08/05 05:58:35;;;;;;;0.85;0.47;;;22.60;56.10;;;;;;4864884;29;47166;-83
2023/08/05 06:01:01;;;;;;;0.60;0.60;;;22.60;56.00;;;;;;4874915;29;45462;-85
2023/08/05 06:03:27;;;;;;;0.38;0.38;;;22.60;56.00;;;;;;4865511;29;46532;-84
2023/08/05 06:05:52;;;;;;;0.70;0.70;;;22.60;56.10;;;;;;4879014;29;45619;-84
2023/08/05 06:08:18;;;;;;;0.60;0.60;;;22.60;56.00;;;;;;4848863;29;47152;-83
2023/08/05 06:10:44;;;;;;;0.50;0.50;;;22.60;56.10;;;;;;4859272;29;44679;-87
2023/08/05 06:13:09;;;;;;;0.80;0.60;;;22.60;56.00;;;;;;4856364;29;45141;-83
2023/08/05 06:15:39;;;;;;;0.60;0.60;;;22.60;56.10;;;;;;4861826;29;45669;-82
2023/08/05 06:18:05;;;;;;;0.50;0.50;;;22.60;56.00;;;;;;4877959;29;47364;-83
2023/08/05 06:20:31;;;;;;;0.50;0.50;;;22.60;56.10;;;;;;4847988;29;45190;-83
2023/08/05 06:22:56;;;;;;;0.70;0.60;;;22.60;56.10;;;;;;4862682;29;45417;-84
2023/08/05 06:25:22;;;;;;;1.15;0.60;;;22.60;56.10;;;;;;4860662;29;45047;-86
2023/08/05 06:27:48;;;;;;;0.50;0.50;;;22.60;56.10;;;;;;4881404;29;45264;-82
2023/08/05 06:30:17;;;;;;;0.50;0.50;;;22.60;56.10;;;;;;4877446;29;45587;-88
2023/08/05 06:32:42;;;;;;;0.70;0.50;;;22.60;56.10;;;;;;4880177;29;45509;-84
2023/08/05 06:35:08;;;;;;;0.40;0.40;;;22.50;56.00;;;;;;4874502;29;45447;-82
2023/08/05 06:37:34;;;;;;;0.40;0.40;;;22.60;56.10;;;;;;4877728;29;46830;-83
2023/08/05 06:39:59;;;;;;;1.05;0.60;;;22.60;56.10;;;;;;4879129;29;45192;-82
2023/08/05 06:42:26;;;;;;;0.52;0.52;;;22.60;56.10;;;;;;4860907;29;45068;-86
2023/08/05 06:44:52;;;;;;;0.70;0.52;;;22.60;56.10;;;;;;4882080;29;45372;-82
2023/08/05 06:47:18;;;;;;;0.40;0.40;;;22.60;56.10;;;;;;4858128;29;45626;-83
2023/08/05 06:49:43;;;;;;;0.85;0.55;;;22.60;56.10;;;;;;4879716;29;45154;-84
2023/08/05 06:52:09;;;;;;;0.65;0.60;;;22.50;56.00;;;;;;4859687;29;45579;-83
2023/08/05 06:54:34;;;;;;;0.43;0.43;;;22.60;56.10;;;;;;4848560;29;45296;-84
2023/08/05 06:57:00;;;;;;;0.85;0.68;;;22.60;56.10;;;;;;4877143;29;45508;-83
2023/08/05 06:59:27;;;;;;;0.60;0.60;;;22.50;56.10;;;;;;4864779;29;44949;-85
2023/08/05 07:01:53;;;;;;;0.98;0.70;;;22.60;56.10;;;;;;4855038;29;45386;-84
2023/08/05 07:04:19;;;;;;;0.77;0.52;;;22.60;56.10;;;;;;4863744;29;45228;-84
2023/08/05 07:06:44;;;;;;;0.70;0.40;;;22.50;56.10;;;;;;4846579;29;48443;-85
2023/08/05 07:09:10;;;;;;;0.65;0.65;;;22.50;56.10;;;;;;4846367;29;45526;-84
2023/08/05 07:11:36;;;;;;;0.80;0.50;;;22.50;56.10;;;;;;4861947;29;45115;-85
2023/08/05 07:14:01;;;;;;;0.60;0.47;;;22.60;56.10;;;;;;4865262;29;45373;-84
2023/08/05 07:16:27;;;;;;;0.50;0.50;;;22.60;56.20;;;;;;4861955;29;46922;-83
2023/08/05 07:18:52;;;;;;;0.65;0.63;;;22.60;56.10;;;;;;4861047;29;45348;-86
2023/08/05 07:21:18;;;;;;;0.63;0.60;;;22.50;56.10;;;;;;4861160;29;44624;-85
2023/08/05 07:23:44;;;;;;;0.38;0.38;;;22.50;56.10;;;;;;4864042;29;45067;-85
2023/08/05 07:26:09;;;;;;;1.05;0.57;;;22.50;56.10;;;;;;4859750;29;45222;-83
2023/08/05 07:28:35;;;;;;;0.50;0.50;;;22.50;56.10;;;;;;4877072;29;45991;-85
2023/08/05 07:31:04;;;;;;;0.65;0.65;;;22.50;56.10;;;;;;4857464;29;45491;-86
2023/08/05 07:33:30;;;;;;;1.00;0.63;;;22.50;56.10;;;;;;4861358;29;45478;-83
2023/08/05 07:35:56;;;;;;;0.70;0.60;;;22.60;56.10;;;;;;4872488;29;46997;-87
2023/08/05 07:38:25;;;;;;;0.80;0.63;;;22.50;56.10;;;;;;4864301;29;45468;-84
2023/08/05 07:40:54;;;;;;;0.60;0.60;;;22.60;56.10;;;;;;4861990;29;45813;-83
2023/08/05 07:43:23;;;;;;;0.75;0.60;;;22.50;56.10;;;;;;4858841;29;45327;-82
2023/08/05 07:45:52;;;;;;;0.73;0.60;;;22.50;56.10;;;;;;4872015;29;46021;-83
2023/08/05 07:48:18;;;;;;;0.57;0.57;;;22.50;56.10;;;;;;4875839;29;45333;-84
2023/08/05 07:50:44;;;;;;;0.63;0.60;;;22.50;56.10;;;;;;4860346;29;45216;-85
2023/08/05 07:53:09;;;;;;;1.73;0.50;;;22.50;56.20;;;;;;4863832;29;45276;-83
2023/08/05 07:55:37;;;;;;;1.30;0.60;;;22.50;56.10;;;;;;4859634;29;47323;-84
2023/08/05 07:58:04;;;;;;;0.68;0.55;;;22.50;56.10;;;;;;4876278;29;45505;-83
2023/08/05 08:00:30;;;;;;;2.47;0.40;;;22.50;56.10;;;;;;4874499;29;45213;-84
2023/08/05 08:02:56;;;;;;;0.77;0.57;;;22.50;56.10;;;;;;4876269;29;45691;-82
2023/08/05 08:05:22;;;;;;;0.70;0.65;;;22.60;56.20;;;;;;4873451;29;45512;-83
2023/08/05 08:07:47;;;;;;;0.60;0.50;;;22.50;56.10;;;;;;4866794;29;45869;-83
2023/08/05 08:10:14;;;;;;;1.00;0.57;;;22.50;56.10;;;;;;4878531;29;45609;-85
2023/08/05 08:12:39;;;;;;;0.60;0.60;;;22.50;56.20;;;;;;4862679;29;45733;-83
2023/08/05 08:15:14;;;;;;;0.60;0.60;;;22.50;56.10;;;;;;4863987;29;47098;-87
2023/08/05 08:17:40;;;;;;;0.55;0.52;;;22.50;56.10;;;;;;4865818;29;45570;-82
2023/08/05 08:20:09;;;;;;;0.52;0.52;;;22.50;56.20;;;;;;4864467;29;45213;-87
2023/08/05 08:22:34;;;;;;;1.25;0.50;;;22.50;56.20;;;;;;4863482;29;45006;-82
2023/08/05 08:25:00;;;;;;;0.82;0.60;;;22.50;56.20;;;;;;4882614;29;47108;-85
2023/08/05 08:27:25;;;;;;;0.63;0.60;;;22.50;56.10;;;;;;4866482;29;45484;-86
2023/08/05 08:29:51;;;;;;;0.60;0.60;;;22.50;56.20;;;;;;4848773;29;45703;-86
2023/08/05 08:32:17;;;;;;;0.50;0.50;;;22.50;56.20;;;;;;4859166;29;45032;-85
2023/08/05 08:34:42;;;;;;;0.77;0.63;;;22.50;56.20;;;;;;4872189;29;47012;-84
2023/08/05 08:37:08;;;;;;;0.55;0.55;;;22.50;56.20;;;;;;4861884;29;45507;-85
2023/08/05 08:39:33;;;;;;;0.60;0.60;;;22.50;56.10;;;;;;4882991;29;45526;-85
2023/08/05 08:41:59;;;;;;;1.30;0.60;;;22.50;56.20;;;;;;4874129;29;44947;-87
2023/08/05 08:44:26;;;;;;;0.50;0.50;;;22.50;56.20;;;;;;4863302;29;45532;-84
2023/08/05 08:46:51;;;;;;;0.80;0.70;;;22.50;56.20;;;;;;4867272;29;45521;-83
2023/08/05 08:49:17;;;;;;;1.20;0.70;;;22.50;56.20;;;;;;4862407;29;45037;-83
2023/08/05 08:51:46;;;;;;;0.98;0.70;;;22.50;56.20;;;;;;4877029;29;45019;-84
2023/08/05 08:54:12;;;;;;;0.80;0.63;;;22.50;56.20;;;;;;4861032;29;47213;-83
2023/08/05 08:56:38;;;;;;;0.50;0.50;;;22.50;56.20;;;;;;4861865;29;45601;-83
2023/08/05 08:59:03;;;;;;;0.63;0.63;;;22.50;56.20;;;;;;4882086;29;44690;-86
2023/08/05 09:01:29;;;;;;;1.50;0.93;;;22.50;56.20;;;;;;4862225;29;45447;-86
2023/08/05 09:03:55;;;;;;;1.83;0.63;;;22.50;56.20;;;;;;4863508;29;47128;-86
2023/08/05 09:06:23;;;;;;;0.88;0.70;;;22.50;56.20;;;;;;4861804;29;45265;-83
2023/08/05 09:08:50;;;;;;;0.80;0.68;;;22.50;56.20;;;;;;4868781;29;45509;-83
2023/08/05 09:11:16;;;;;;;1.40;0.63;;;22.60;56.30;;;;;;4881484;28;45330;-83
2023/08/05 09:13:42;;;;;;;0.70;0.60;;;22.50;56.20;;;;;;4881912;29;45499;-85
2023/08/05 09:16:14;;;;;;;0.90;0.55;;;22.50;56.20;;;;;;4872969;29;45642;-84
2023/08/05 09:18:44;;;;;;;0.68;0.57;;;22.50;56.20;;;;;;4864590;29;45501;-83
2023/08/05 09:21:10;;;;;;;0.70;0.70;;;22.50;56.20;;;;;;4877759;29;45897;-84
2023/08/05 09:23:45;;;;;;;0.75;0.63;;;22.60;56.30;;;;;;4867485;29;45668;-86
2023/08/05 09:26:11;;;;;;;0.73;0.70;;;22.60;56.20;;;;;;4867613;29;45243;-86
2023/08/05 09:28:37;;;;;;;1.02;0.60;;;22.50;56.30;;;;;;4865380;29;45621;-82
2023/08/05 09:31:13;;;;;;;0.50;0.50;;;22.50;56.20;;;;;;4875517;29;45459;-87
2023/08/05 09:33:40;;;;;;;0.70;0.60;;;22.50;56.20;;;;;;4846887;29;46872;-83
2023/08/05 09:36:12;;;;;;;0.60;0.60;;;22.50;56.30;;;;;;4857081;29;46221;-84
2023/08/05 09:38:39;;;;;;;0.80;0.70;;;22.50;56.20;;;;;;4861819;29;45600;-88
2023/08/05 09:41:06;;;;;;;0.60;0.60;;;22.50;56.20;;;;;;4861854;29;44990;-85
2023/08/05 09:43:34;;;;;;;1.45;0.70;;;22.50;56.30;;;;;;4862840;29;47409;-83
2023/08/05 09:46:09;;;;;;;0.73;0.60;;;22.50;56.20;;;;;;4858382;29;45210;-86
2023/08/05 09:48:43;;;;;;;0.80;0.80;;;22.50;56.20;;;;;;4863855;29;45400;-83
2023/08/05 09:51:15;;;;;;;1.00;0.60;;;22.50;56.20;;;;;;4879992;28;45935;-85
2023/08/05 09:53:41;;;;;;;0.50;0.50;;;22.60;56.30;;;;;;4848710;29;47219;-84
2023/08/05 09:56:06;;;;;;;0.82;0.70;;;22.50;56.30;;;;;;4863170;29;45779;-84
2023/08/05 09:58:37;;;;;;;0.68;0.60;;;22.60;56.30;;;;;;4865864;29;45258;-83
2023/08/05 10:01:08;;;;;;;0.57;0.50;;;22.50;56.30;;;;;;4872910;29;45718;-83
2023/08/05 10:03:39;;;;;;;1.10;0.75;;;22.60;56.30;;;;;;4864288;29;46862;-85
2023/08/05 10:06:09;;;;;;;1.00;0.80;;;22.50;56.20;;;;;;4861332;29;45643;-85
2023/08/05 10:08:40;;;;;;;0.88;0.88;;;22.60;56.30;;;;;;4862817;29;45024;-83
2023/08/05 10:11:06;;;;;;;1.30;0.93;;;22.60;56.30;;;;;;4876409;29;45387;-88
2023/08/05 10:13:35;;;;;;;1.48;0.70;;;22.60;56.30;;;;;;4862611;29;46140;-84
2023/08/05 10:16:01;;;;;;;1.10;0.80;;;22.50;56.30;;;;;;4853259;29;45395;-83
2023/08/05 10:18:27;;;;;;;0.80;0.80;;;22.60;56.30;;;;;;4861792;29;45288;-86
2023/08/05 10:20:52;;;;;;;0.98;0.70;;;22.60;56.30;;;;;;4890509;28;45009;-83
2023/08/05 10:23:18;;;;;;;1.55;0.98;;;22.60;56.30;;;;;;4868421;29;45337;-83
2023/08/05 10:25:47;;;;;;;1.05;0.90;;;22.60;56.30;;;;;;4874755;29;45023;-84
2023/08/05 10:28:25;;;;;;;0.68;0.65;;;22.60;56.30;;;;;;4870690;29;45033;-84
2023/08/05 10:30:51;;;;;;;0.85;0.60;;;22.60;56.30;;;;;;4885960;28;45384;-83
2023/08/05 10:33:17;;;;;;;1.00;0.77;;;22.60;56.40;;;;;;4876568;29;46367;-86
2023/08/05 10:35:43;;;;;;;2.10;0.70;;;22.60;56.30;;;;;;4872359;29;45283;-84
2023/08/05 10:38:17;;;;;;;1.35;0.63;;;22.50;56.30;;;;;;4864734;29;45640;-84
2023/08/05 10:41:00;;;;;;;0.63;0.63;;;22.60;56.30;;;;;;4874799;29;45514;-83
2023/08/05 10:43:27;;;;;;;1.03;0.70;;;22.60;56.30;;;;;;4848495;29;48366;-84
2023/08/05 10:45:53;;;;;;;0.75;0.70;;;22.60;56.30;;;;;;4871110;29;45599;-82
2023/08/05 10:48:18;;;;;;;1.20;0.90;;;22.60;56.30;;;;;;4875099;29;44816;-84
2023/08/05 10:50:44;;;;;;;1.10;0.85;;;22.60;56.30;;;;;;4870302;29;45780;-82
2023/08/05 10:53:10;;;;;;;1.40;0.70;;;22.50;56.30;;;;;;4876198;29;46139;-85
2023/08/05 10:55:48;;;;;;;1.48;0.68;;;22.60;56.30;;;;;;4856872;29;45389;-84
2023/08/05 10:58:14;;;;;;;1.00;0.70;;;22.60;56.30;;;;;;4861124;29;44998;-82
2023/08/05 11:00:41;;;;;;;2.15;0.75;;;22.60;56.30;;;;;;4855076;29;45766;-85
2023/08/05 11:03:41;;;;;;;1.35;0.70;;;22.60;56.30;;;;;;4861840;29;47266;-85
2023/08/05 11:06:07;;;;;;;0.82;0.82;;;22.60;56.30;;;;;;4874142;29;44675;-85
2023/08/05 11:08:34;;;;;;;1.05;0.88;;;22.60;56.40;;;;;;4864805;29;44970;-84
2023/08/05 11:11:14;;;;;;;0.88;0.82;;;22.60;56.30;;;;;;4861125;29;45603;-83
2023/08/05 11:13:44;;;;;;;0.88;0.60;;;22.60;56.30;;;;;;4856201;29;47534;-84
2023/08/05 11:16:16;;;;;;;0.93;0.75;;;22.60;56.30;;;;;;4874153;29;45264;-84
2023/08/05 11:18:46;;;;;;;2.23;0.70;;;22.60;56.30;;;;;;4854610;29;45325;-84
2023/08/05 11:21:13;;;;;;;0.70;0.70;;;22.60;56.30;;;;;;4854471;29;45900;-85
2023/08/05 11:23:41;;;;;;;2.92;0.80;;;22.60;56.30;;;;;;4850554;29;46705;-84
2023/08/05 11:26:07;;;;;;;0.85;0.70;;;22.60;56.30;;;;;;4870188;29;45396;-86
2023/08/05 11:28:33;;;;;;;0.95;0.80;;;22.60;56.30;;;;;;4870909;29;45283;-84
2023/08/05 11:31:02;;;;;;;0.70;0.70;;;22.60;56.30;;;;;;4860713;29;45633;-89
2023/08/05 11:33:28;;;;;;;1.33;0.70;;;22.60;56.30;;;;;;4877402;29;45262;-83
2023/08/05 11:35:54;;;;;;;1.10;0.85;;;22.60;56.30;;;;;;4859515;29;46097;-82
2023/08/05 11:38:23;;;;;;;0.80;0.80;;;22.60;56.30;;;;;;4861428;29;45487;-83
2023/08/05 11:40:51;;;;;;;1.02;0.75;;;22.60;56.30;;;;;;4861922;29;45474;-87
2023/08/05 11:43:19;;;;;;;0.82;0.70;;;22.60;56.30;;;;;;4878995;29;46698;-84
2023/08/05 11:45:44;;;;;;;0.88;0.70;;;22.60;56.30;;;;;;4857785;29;46153;-85
2023/08/05 11:48:26;;;;;;;0.85;0.80;;;22.60;56.30;;;;;;4880643;28;45143;-84
2023/08/05 11:51:02;;;;;;;0.90;0.90;;;22.60;56.30;;;;;;4885411;29;45521;-85
2023/08/05 11:53:28;;;;;;;0.70;0.70;;;22.60;56.30;;;;;;4851092;29;47282;-86
2023/08/05 11:55:54;;;;;;;1.52;0.77;;;22.60;56.30;;;;;;4849633;29;45286;-82
2023/08/05 11:58:20;;;;;;;0.70;0.70;;;22.60;56.30;;;;;;4853475;29;45101;-85
2023/08/05 12:01:03;;;;;;;0.80;0.70;;;22.60;56.30;;;;;;4857874;29;45547;-84
2023/08/05 12:03:32;;;;;;;0.50;0.50;;;22.60;56.30;;;;;;4892291;28;47409;-84
2023/08/05 12:06:01;;;;;;;0.50;0.50;;;22.60;56.30;;;;;;4842393;29;45193;-81
2023/08/05 12:08:38;;;;;;;0.80;0.80;;;22.70;56.40;;;;;;4869375;29;44618;-83
2023/08/05 12:11:04;;;;;;;0.85;0.70;;;22.60;56.90;;;;;;4870367;29;44770;-84
2023/08/05 12:13:33;;;;;;;0.70;0.70;;;22.60;56.30;;;;;;4859918;29;46810;-86
2023/08/05 12:15:59;;;;;;;0.50;0.50;;;22.60;56.30;;;;;;4872692;29;45274;-87
2023/08/05 12:18:25;;;;;;;1.45;0.70;;;22.60;56.40;;;;;;4859590;29;45571;-83
2023/08/05 12:20:50;;;;;;;0.82;0.60;;;22.60;56.30;;;;;;4875711;29;45609;-84
2023/08/05 12:23:16;;;;;;;1.35;0.85;;;22.60;56.30;;;;;;4875781;29;46190;-86
2023/08/05 12:25:41;;;;;;;1.25;0.70;;;22.60;56.30;;;;;;4856745;29;45584;-85
2023/08/05 12:28:07;;;;;;;0.60;0.60;;;22.60;56.30;;;;;;4863027;29;45040;-84
2023/08/05 12:30:33;;;;;;;1.30;0.98;;;22.60;56.30;;;;;;4853130;29;45759;-83
2023/08/05 12:32:58;;;;;;;1.20;0.60;;;22.60;56.30;;;;;;4879515;29;46362;-83
2023/08/05 12:35:27;;;;;;;0.93;0.70;;;22.70;56.40;;;;;;4860411;29;45142;-84
2023/08/05 12:37:53;;;;;;;0.90;0.70;;;22.60;56.30;;;;;;4879541;29;45472;-84
2023/08/05 12:40:21;;;;;;;0.73;0.70;;;22.70;56.40;;;;;;4859300;29;45595;-87
2023/08/05 12:42:47;;;;;;;0.93;0.77;;;22.70;56.40;;;;;;4876287;29;45829;-86
2023/08/05 12:45:15;;;;;;;1.20;1.00;;;22.70;56.40;;;;;;4889330;28;45171;-86
2023/08/05 12:47:41;;;;;;;1.23;1.05;;;22.70;56.40;;;;;;4863273;29;45413;-85
2023/08/05 12:50:09;;;;;;;0.90;0.70;;;22.60;56.30;;;;;;4896450;28;45226;-87
2023/08/05 12:52:35;;;;;;;0.85;0.70;;;22.70;56.40;;;;;;4877939;29;45474;-83
2023/08/05 12:55:01;;;;;;;0.77;0.70;;;22.70;56.40;;;;;;4866918;29;44931;-83
2023/08/05 12:57:31;;;;;;;0.82;0.70;;;22.60;56.30;;;;;;4866044;29;45062;-84
2023/08/05 13:00:01;;;;;;;0.65;0.65;;;22.70;56.40;;;;;;4860992;29;46094;-84
2023/08/05 13:02:26;;;;;;;1.70;0.98;;;22.70;56.40;;;;;;4859982;29;47004;-83
2023/08/05 13:04:52;;;;;;;2.05;0.65;;;22.70;56.40;;;;;;4878520;29;45286;-83
2023/08/05 13:07:18;;;;;;;1.05;0.80;;;22.70;56.40;;;;;;4876452;29;45605;-84
2023/08/05 13:09:46;;;;;;;0.70;0.68;;;22.60;56.30;;;;;;4882985;29;45292;-83
2023/08/05 13:12:13;;;;;;;0.70;0.60;;;22.70;56.40;;;;;;4862141;29;46797;-83
2023/08/05 13:14:39;;;;;;;0.70;0.70;;;22.70;56.30;;;;;;4864130;29;44947;-83
2023/08/05 13:17:04;;;;;;;1.25;0.75;;;22.70;56.40;;;;;;4861704;29;44992;-82
2023/08/05 13:19:30;;;;;;;0.80;0.65;;;22.70;56.40;;;;;;4876687;29;45553;-86
2023/08/05 13:21:56;;;;;;;0.57;0.57;;;22.70;56.40;;;;;;4858310;29;47109;-84
2023/08/05 13:24:21;;;;;;;0.80;0.80;;;22.70;56.40;;;;;;4877054;29;45524;-86
2023/08/05 13:26:47;;;;;;;0.68;0.68;;;22.70;56.40;;;;;;4875846;29;44925;-84
2023/08/05 13:29:12;;;;;;;2.78;0.70;;;22.70;56.40;;;;;;4865552;29;45505;-83
2023/08/05 13:31:38;;;;;;;0.60;0.60;;;22.70;56.30;;;;;;4874368;29;45506;-82
2023/08/05 13:34:04;;;;;;;1.20;0.82;;;22.70;56.40;;;;;;4879539;29;46103;-84
2023/08/05 13:36:29;;;;;;;0.70;0.70;;;22.70;56.40;;;;;;4873877;29;45087;-83
2023/08/05 13:38:55;;;;;;;0.95;0.70;;;22.70;56.30;;;;;;4862925;29;45452;-85
2023/08/05 13:41:20;;;;;;;0.80;0.80;;;22.70;56.40;;;;;;4875488;29;46675;-82
2023/08/05 13:43:46;;;;;;;0.73;0.65;;;22.70;56.40;;;;;;4879870;29;45367;-84
2023/08/05 13:46:12;;;;;;;0.90;0.75;;;22.70;56.30;;;;;;4858884;29;45897;-83
2023/08/05 13:48:38;;;;;;;1.40;1.02;;;22.70;56.40;;;;;;4876559;29;46259;-85
2023/08/05 13:51:10;;;;;;;0.82;0.73;;;22.70;56.40;;;;;;4874394;29;47246;-85
2023/08/05 13:53:36;;;;;;;0.88;0.70;;;22.70;56.40;;;;;;4877054;29;45590;-84
2023/08/05 13:56:02;;;;;;;0.60;0.60;;;22.70;56.40;;;;;;4876540;29;45093;-84
2023/08/05 13:58:27;;;;;;;0.70;0.70;;;22.70;56.40;;;;;;4862756;29;45372;-85
2023/08/05 14:00:54;;;;;;;1.33;0.80;;;22.70;56.40;;;;;;4845296;29;46967;-85
2023/08/05 14:03:20;;;;;;;1.60;0.80;;;22.70;56.40;;;;;;4862494;29;45579;-86
2023/08/05 14:05:46;;;;;;;0.88;0.63;;;22.70;57.00;;;;;;4868043;29;45489;-85
2023/08/05 14:08:11;;;;;;;0.90;0.90;;;22.70;56.40;;;;;;4864580;29;45583;-84
2023/08/05 14:10:37;;;;;;;0.73;0.57;;;22.70;56.40;;;;;;4865607;29;47633;-82
2023/08/05 14:13:02;;;;;;;0.80;0.80;;;22.70;56.40;;;;;;4864355;29;46100;-86
2023/08/05 14:15:28;;;;;;;0.60;0.60;;;22.70;56.40;;;;;;4875021;29;45656;-88
2023/08/05 14:17:54;;;;;;;1.50;0.65;;;22.70;56.90;;;;;;4847363;29;45332;-82
2023/08/05 14:20:20;;;;;;;0.70;0.70;;;22.70;56.40;;;;;;4861470;29;47516;-84
2023/08/05 14:22:46;;;;;;;1.02;0.90;;;22.70;56.40;;;;;;4864716;29;45898;-85
2023/08/05 14:25:14;;;;;;;1.42;0.80;;;22.70;56.40;;;;;;4879407;28;45077;-83
2023/08/05 14:27:39;;;;;;;0.65;0.65;;;22.70;56.40;;;;;;4870271;29;45553;-82
2023/08/05 14:30:09;;;;;;;0.70;0.50;;;22.60;56.30;;;;;;4882621;29;46341;-87
2023/08/05 14:32:35;;;;;;;0.68;0.68;;;22.70;56.40;;;;;;4860628;28;45389;-84
2023/08/05 14:35:00;;;;;;;1.58;0.60;;;22.70;56.40;;;;;;4885365;29;45360;-84
2023/08/05 14:37:26;;;;;;;0.68;0.68;;;22.70;56.40;;;;;;4861812;29;45577;-89
2023/08/05 14:39:53;;;;;;;1.60;0.98;;;22.70;56.40;;;;;;4867392;29;45614;-85
2023/08/05 14:42:18;;;;;;;1.02;0.77;;;22.70;56.40;;;;;;4863153;29;45916;-83
2023/08/05 14:44:44;;;;;;;1.13;0.80;;;22.70;56.40;;;;;;4848757;29;44985;-83
2023/08/05 14:47:10;;;;;;;0.82;0.80;;;22.70;56.40;;;;;;4858283;29;45225;-84
2023/08/05 14:49:35;;;;;;;1.58;1.05;;;22.70;56.40;;;;;;4860636;29;46515;-84
2023/08/05 14:52:01;;;;;;;1.10;0.60;;;22.70;56.40;;;;;;4872594;29;45481;-83
2023/08/05 14:54:29;;;;;;;0.95;0.68;;;22.70;56.40;;;;;;4860953;29;44986;-83
2023/08/05 14:56:58;;;;;;;0.65;0.65;;;22.70;56.40;;;;;;4861869;29;45401;-84
2023/08/05 14:59:23;;;;;;;0.70;0.70;;;22.70;56.40;;;;;;4865377;29;45366;-87
2023/08/05 15:01:49;;;;;;;0.60;0.60;;;22.70;56.40;;;;;;4885588;28;45245;-82
2023/08/05 15:04:14;;;;;;;0.80;0.80;;;22.70;56.40;;;;;;4882355;29;45217;-83
2023/08/05 15:06:40;;;;;;;0.80;0.77;;;22.70;56.40;;;;;;4876599;29;45385;-84
2023/08/05 15:09:06;;;;;;;0.73;0.60;;;22.70;56.40;;;;;;4888025;29;48252;-82
2023/08/05 15:11:31;;;;;;;0.70;0.70;;;22.70;56.40;;;;;;4865283;29;45581;-86
2023/08/05 15:13:57;;;;;;;0.95;0.75;;;22.70;56.40;;;;;;4884477;29;45517;-84
2023/08/05 15:16:25;;;;;;;0.77;0.70;;;22.70;56.40;;;;;;4877714;29;45099;-87
2023/08/05 15:18:51;;;;;;;0.73;0.73;;;22.70;56.40;;;;;;4866785;29;48045;-85
2023/08/05 15:21:17;;;;;;;0.60;0.60;;;22.70;56.40;;;;;;4885167;29;45322;-84
2023/08/05 15:23:42;;;;;;;0.70;0.60;;;22.70;56.40;;;;;;4867829;29;45593;-83
2023/08/05 15:26:08;;;;;;;0.80;0.65;;;22.70;56.40;;;;;;4868987;29;45705;-82
2023/08/05 15:28:33;;;;;;;0.70;0.70;;;22.70;56.40;;;;;;4868667;29;45903;-83
2023/08/05 15:30:59;;;;;;;0.65;0.65;;;22.70;57.00;;;;;;4863420;29;44755;-87
2023/08/05 15:33:25;;;;;;;0.90;0.90;;;22.70;56.40;;;;;;4852205;29;45278;-87
2023/08/05 15:35:51;;;;;;;0.65;0.65;;;22.70;56.40;;;;;;4878519;29;45074;-86
2023/08/05 15:38:16;;;;;;;0.82;0.80;;;22.70;56.40;;;;;;4879819;29;45539;-83
2023/08/05 15:40:43;;;;;;;1.60;0.80;;;22.70;56.40;;;;;;4863181;29;45488;-83
2023/08/05 15:43:12;;;;;;;0.77;0.77;;;22.70;56.40;;;;;;4869563;29;45342;-84
2023/08/05 15:45:39;;;;;;;0.80;0.80;;;22.70;56.40;;;;;;4863774;29;45227;-82